Historique des mesures à Cassis (13260), France
Quotidien Résumé Mars 26, 2018 Unités:  Métrique    US   Métrique/US
« Précédent (Jour)
Suivant (Jour) »
Quotidien Hebdomadaire Mensuel Annuel Période au choix
  Maximum: Minimum: Moyenne:
Température: TemperatureC °C 7.6 °C 12.1 °C
Point de rosée: DewpointC °C 2.7 °C 4 °C
Humidité: Humidity % 39 % 55 %
Vitesse du vent: 0 km/h 0 km/h 16.9 km/h
Rafales: 0 km/h - -
Vent:- - SW
Pression: PressurehPa hPa 1004.3 hPa -
Précipitations: 0.0 mm    
Historical Graphs
 
 
Mesures pour : Mars 26, 2018
Heure Temperature Point de rosée Pression Vent Vitesse du vent Rafales Humidité Pluie (par heure) Conditions
TemperatureC °C DewpointC °C PressurehPa hPa Calm     Humidity % HourlyPrecipMM mm SoftwareType W/m2
00:11 10.3 °C 4.4 °C 1004.6 hPa Calm     67 % 0.0 mm open2300-1.11 W/m2
01:11 9.8 °C 4.4 °C 1004.3 hPa Calm     69 % 0.0 mm open2300-1.11 W/m2
02:11 10.3 °C 4.9 °C 1004.3 hPa Calm     69 % 0.0 mm open2300-1.11 W/m2
03:11 9.9 °C 4.3 °C 1004.6 hPa Calm   1.8 km/h 68 % 0.0 mm open2300-1.11 W/m2
04:10 9.6 °C 3.9 °C 1004.6 hPa North 1.8 km/h 5.1 km/h 68 % 0.0 mm open2300-1.11 W/m2
05:10 9.0 °C 3.6 °C 1005.0 hPa NNW 4.2 km/h 4.7 km/h 69 % 0.0 mm open2300-1.11 W/m2
06:10 8.7 °C 3.3 °C 1005.3 hPa NNW 5.1 km/h 7.6 km/h 69 % 0.0 mm open2300-1.11 W/m2
07:10 8.0 °C 2.9 °C 1005.3 hPa NNW 2.3 km/h 4.2 km/h 70 % 0.0 mm open2300-1.11 W/m2
08:10 7.6 °C 2.7 °C 1006.3 hPa NNW 6.9 km/h 12.7 km/h 71 % 0.0 mm open2300-1.11 W/m2
09:10 9.4 °C 4.2 °C 1006.7 hPa Calm   4.7 km/h 70 % 0.0 mm open2300-1.11 W/m2
10:10 11.0 °C 4.9 °C 1006.7 hPa WNW 35.2 km/h 35.2 km/h 66 % 0.0 mm open2300-1.11 W/m2
11:11 12.8 °C 5.2 °C 1007.0 hPa WNW 23.8 km/h 29.5 km/h 60 % 0.0 mm open2300-1.11 W/m2
12:10 14.6 °C 5.1 °C 1007.0 hPa NW 14.5 km/h 20.9 km/h 53 % 0.0 mm open2300-1.11 W/m2
13:10 16.1 °C 5.1 °C 1007.0 hPa North 19.2 km/h 25.4 km/h 48 % 0.0 mm open2300-1.11 W/m2
14:12 17.3 °C 4.6 °C 1006.7 hPa WNW 22.5 km/h 34.1 km/h 43 % 0.0 mm open2300-1.11 W/m2
15:12 18.1 °C 4.3 °C 1006.7 hPa North 6.9 km/h 52.8 km/h 40 % 0.0 mm open2300-1.11 W/m2
16:12 18.1 °C 3.9 °C 1006.3 hPa WNW 44.1 km/h 48.1 km/h 39 % 0.0 mm open2300-1.11 W/m2
17:12 17.6 °C 4.5 °C 1006.7 hPa WNW 53.3 km/h 53.3 km/h 42 % 0.0 mm open2300-1.11 W/m2
18:12 16.9 °C 4.5 °C 1007.0 hPa WNW 29.5 km/h 48.1 km/h 44 % 0.0 mm open2300-1.11 W/m2
19:12 15.5 °C 3.9 °C 1007.7 hPa North 18.7 km/h 24.8 km/h 46 % 0.0 mm open2300-1.11 W/m2
20:12 14.3 °C 3.4 °C 1008.4 hPa NNW 19.2 km/h 68.9 km/h 48 % 0.0 mm open2300-1.11 W/m2
21:11 13.4 °C 3.4 °C 1009.0 hPa North 26.7 km/h 52 km/h 51 % 0.0 mm open2300-1.11 W/m2
22:11 12.9 °C 3.8 °C 1009.7 hPa WNW 60.3 km/h 60.3 km/h 54 % 0.0 mm open2300-1.11 W/m2
23:11 12.3 °C 4.0 °C 1009.7 hPa NNE 27.2 km/h 56.6 km/h 57 % 0.0 mm open2300-1.11 W/m2
Observations météo à CASSIS
WU-History script by Weather Underground - 1 mb